createdAt,value
2023-01-05T00:00:12.575Z,11.54
2023-01-05T00:02:39.991Z,11.47
2023-01-05T00:05:10.638Z,11.35
2023-01-05T00:07:37.748Z,11.41
2023-01-05T00:10:05.281Z,11.57
2023-01-05T00:12:52.521Z,11.54
2023-01-05T00:15:38.897Z,11.32
2023-01-05T00:18:46.045Z,11.42
2023-01-05T00:21:36.428Z,11.41
2023-01-05T00:24:05.483Z,11.30
2023-01-05T00:26:32.407Z,11.21
2023-01-05T00:28:59.377Z,11.45
2023-01-05T00:31:26.325Z,11.49
2023-01-05T00:33:55.654Z,11.46
2023-01-05T00:36:24.298Z,11.31
2023-01-05T00:38:52.375Z,11.28
2023-01-05T00:41:30.446Z,11.30
2023-01-05T00:44:02.753Z,11.34
2023-01-05T00:46:37.009Z,11.35
2023-01-05T00:49:05.208Z,11.49
2023-01-05T00:51:32.099Z,11.59
2023-01-05T00:54:01.875Z,11.63
2023-01-05T00:56:29.420Z,11.57
2023-01-05T00:58:59.564Z,11.38
2023-01-05T01:01:26.580Z,11.48
2023-01-05T01:03:57.547Z,11.26
2023-01-05T01:06:31.473Z,11.09
2023-01-05T01:09:01.892Z,10.93
2023-01-05T01:11:31.986Z,11.05
2023-01-05T01:13:58.942Z,11.06
2023-01-05T01:16:26.133Z,11.42
2023-01-05T01:18:58.265Z,11.44
2023-01-05T01:21:28.188Z,11.28
2023-01-05T01:23:58.172Z,11.39
2023-01-05T01:26:25.070Z,11.49
2023-01-05T01:28:53.609Z,11.67
2023-01-05T01:31:20.635Z,11.49
2023-01-05T01:33:47.689Z,11.37
2023-01-05T01:36:14.770Z,11.27
2023-01-05T01:38:57.413Z,11.52
2023-01-05T01:41:27.119Z,11.36
2023-01-05T01:44:02.359Z,11.45
2023-01-05T01:46:32.314Z,11.40
2023-01-05T01:49:17.788Z,11.43
2023-01-05T01:51:50.957Z,11.42
2023-01-05T01:54:18.783Z,11.48
2023-01-05T01:56:55.009Z,11.28
2023-01-05T01:59:28.669Z,11.42
2023-01-05T02:02:04.347Z,11.38
2023-01-05T02:04:36.934Z,11.25
2023-01-05T02:07:07.074Z,11.18
2023-01-05T02:09:38.194Z,11.29
2023-01-05T02:12:20.556Z,11.33
2023-01-05T02:15:16.316Z,11.23
2023-01-05T02:17:51.583Z,11.11
2023-01-05T02:20:36.965Z,11.32
2023-01-05T02:23:37.165Z,11.20
2023-01-05T02:26:41.360Z,11.14
2023-01-05T02:29:54.797Z,11.39
2023-01-05T02:32:33.834Z,11.37
2023-01-05T02:35:13.728Z,11.42
2023-01-05T02:38:02.970Z,11.23
2023-01-05T02:40:51.089Z,11.38
2023-01-05T02:43:22.056Z,11.23
2023-01-05T02:45:50.686Z,11.16
2023-01-05T02:48:20.669Z,11.05
2023-01-05T02:51:06.502Z,10.81
2023-01-05T02:53:43.543Z,10.76
2023-01-05T02:56:23.060Z,10.99
2023-01-05T02:59:07.258Z,10.91
2023-01-05T03:01:44.413Z,10.76
2023-01-05T03:04:23.709Z,10.82
2023-01-05T03:07:07.474Z,10.64
2023-01-05T03:09:46.848Z,10.68
2023-01-05T03:12:55.678Z,10.42
2023-01-05T03:15:36.593Z,10.51
2023-01-05T03:18:13.919Z,10.67
2023-01-05T03:20:46.170Z,10.62
2023-01-05T03:23:36.493Z,10.80
2023-01-05T03:26:26.148Z,10.77
2023-01-05T03:29:20.921Z,10.73
2023-01-05T03:32:45.633Z,10.66
2023-01-05T03:35:34.904Z,10.52
2023-01-05T03:38:27.001Z,10.58
2023-01-05T03:40:58.428Z,10.61
2023-01-05T03:43:25.986Z,10.66
2023-01-05T03:46:07.171Z,10.64
2023-01-05T03:48:41.042Z,10.87
2023-01-05T03:51:08.699Z,11.00
2023-01-05T03:53:52.059Z,11.13
2023-01-05T03:56:18.981Z,11.02
2023-01-05T03:58:45.907Z,10.88
2023-01-05T04:01:13.205Z,10.85
2023-01-05T04:03:41.088Z,10.76
2023-01-05T04:06:13.116Z,10.72
2023-01-05T04:08:40.164Z,10.59
2023-01-05T04:11:23.389Z,10.94
2023-01-05T04:13:51.463Z,10.90
2023-01-05T04:16:21.446Z,10.97
2023-01-05T04:18:53.457Z,10.58
2023-01-05T04:21:27.620Z,10.99
2023-01-05T04:23:58.069Z,10.93
2023-01-05T04:26:34.108Z,11.06
2023-01-05T04:29:06.433Z,11.27
2023-01-05T04:31:33.452Z,11.37
2023-01-05T04:34:03.399Z,11.30
2023-01-05T04:36:30.557Z,11.24
2023-01-05T04:38:57.544Z,11.16
2023-01-05T04:41:24.629Z,11.19
2023-01-05T04:43:51.688Z,11.26
2023-01-05T04:46:24.998Z,11.26
2023-01-05T04:48:51.956Z,11.24
2023-01-05T04:51:19.052Z,11.07
2023-01-05T04:53:48.466Z,11.12
2023-01-05T04:56:15.930Z,11.01
2023-01-05T04:58:51.432Z,10.88
2023-01-05T05:01:23.697Z,10.67
2023-01-05T05:04:00.401Z,10.93
2023-01-05T05:06:28.462Z,10.69
2023-01-05T05:09:10.396Z,10.65
2023-01-05T05:11:40.319Z,10.76
2023-01-05T05:14:09.611Z,10.63
2023-01-05T05:16:38.995Z,10.63
2023-01-05T05:19:05.908Z,10.72
2023-01-05T05:21:35.848Z,10.74
2023-01-05T05:24:04.887Z,10.79
2023-01-05T05:26:31.777Z,10.80
2023-01-05T05:29:00.983Z,10.90
2023-01-05T05:31:31.264Z,10.97
2023-01-05T05:33:58.483Z,10.81
2023-01-05T05:36:25.637Z,10.54
2023-01-05T05:38:54.808Z,10.29
2023-01-05T05:41:25.372Z,10.36
2023-01-05T05:43:52.289Z,10.73
2023-01-05T05:46:19.707Z,10.62
2023-01-05T05:48:49.352Z,10.45
2023-01-05T05:51:16.287Z,10.38
2023-01-05T05:53:44.998Z,10.29
2023-01-05T05:56:14.980Z,10.40
2023-01-05T05:58:48.023Z,10.26
2023-01-05T06:01:14.905Z,10.40
2023-01-05T06:03:47.105Z,10.46
2023-01-05T06:06:15.303Z,10.34
2023-01-05T06:08:42.174Z,10.23
2023-01-05T06:11:09.152Z,10.21
2023-01-05T06:13:39.068Z,10.44
2023-01-05T06:16:06.186Z,10.42
2023-01-05T06:18:33.122Z,10.69
2023-01-05T06:21:02.188Z,10.72
2023-01-05T06:23:32.246Z,10.79
2023-01-05T06:25:59.256Z,10.41
2023-01-05T06:28:29.540Z,10.47
2023-01-05T06:31:06.386Z,10.29
2023-01-05T06:33:41.450Z,10.22
2023-01-05T06:36:08.656Z,10.16
2023-01-05T06:38:45.082Z,9.96
2023-01-05T06:41:12.260Z,10.00
2023-01-05T06:43:41.833Z,9.82
2023-01-05T06:46:13.561Z,9.64
2023-01-05T06:48:45.096Z,9.66
2023-01-05T06:51:11.934Z,10.03
2023-01-05T06:53:38.796Z,9.96
2023-01-05T06:56:10.274Z,9.97
2023-01-05T06:58:37.152Z,9.97
2023-01-05T07:01:04.136Z,9.97
2023-01-05T07:03:31.375Z,9.73
2023-01-05T07:05:58.170Z,9.85
2023-01-05T07:08:25.165Z,9.48
2023-01-05T07:10:52.194Z,9.55
2023-01-05T07:13:19.058Z,9.66
2023-01-05T07:15:50.188Z,9.63
2023-01-05T07:18:17.050Z,10.18
2023-01-05T07:20:45.402Z,10.42
2023-01-05T07:23:15.337Z,10.53
2023-01-05T07:25:45.344Z,10.66
2023-01-05T07:28:15.385Z,10.78
2023-01-05T07:30:45.468Z,10.77
2023-01-05T07:33:13.775Z,10.83
2023-01-05T07:35:40.594Z,10.46
2023-01-05T07:38:07.953Z,10.71
2023-01-05T07:40:34.845Z,10.43
2023-01-05T07:43:05.938Z,10.75
2023-01-05T07:45:35.106Z,10.47
2023-01-05T07:48:21.828Z,10.12
2023-01-05T07:51:08.729Z,10.56
2023-01-05T07:53:44.611Z,11.33
2023-01-05T07:56:14.079Z,11.45
2023-01-05T07:58:42.676Z,11.64
2023-01-05T08:01:12.351Z,11.32
2023-01-05T08:03:39.461Z,11.58
2023-01-05T08:06:17.884Z,11.94
2023-01-05T08:08:56.934Z,11.43
2023-01-05T08:11:32.115Z,10.67
2023-01-05T08:14:14.319Z,10.44
2023-01-05T08:16:49.701Z,10.15
2023-01-05T08:19:19.893Z,10.34
2023-01-05T08:21:46.760Z,10.27
2023-01-05T08:24:13.798Z,10.01
2023-01-05T08:26:43.192Z,10.87
2023-01-05T08:29:12.084Z,10.90
2023-01-05T08:31:40.603Z,10.59
2023-01-05T08:34:12.962Z,10.19
2023-01-05T08:36:43.909Z,10.67
2023-01-05T08:39:11.934Z,10.44
2023-01-05T08:41:48.504Z,10.49
2023-01-05T08:44:21.021Z,10.89
2023-01-05T08:46:51.107Z,10.84
2023-01-05T08:49:17.953Z,11.65
2023-01-05T08:51:47.857Z,11.59
2023-01-05T08:54:14.620Z,11.71
2023-01-05T08:56:43.462Z,11.74
2023-01-05T09:02:13.588Z,11.93
2023-01-05T09:04:51.565Z,12.04
2023-01-05T09:07:19.505Z,12.00
2023-01-05T09:09:49.735Z,11.30
2023-01-05T09:12:16.723Z,11.47
2023-01-05T09:14:49.198Z,11.82
2023-01-05T09:17:15.926Z,10.87
2023-01-05T09:19:42.987Z,10.82
2023-01-05T09:22:09.931Z,11.34
2023-01-05T09:24:36.911Z,11.58
2023-01-05T09:27:07.262Z,11.02
2023-01-05T09:29:40.948Z,10.65
2023-01-05T09:32:11.765Z,10.57
2023-01-05T09:34:43.077Z,10.84
2023-01-05T09:37:19.522Z,10.92
2023-01-05T09:39:50.189Z,11.72
2023-01-05T09:42:24.393Z,12.12
2023-01-05T09:45:04.371Z,12.02
2023-01-05T09:47:43.036Z,12.36
2023-01-05T09:53:08.775Z,11.81
2023-01-05T09:58:30.052Z,11.50
2023-01-05T10:01:09.372Z,12.14
2023-01-05T10:04:06.350Z,12.49
2023-01-05T10:06:50.128Z,12.07
2023-01-05T10:09:34.638Z,12.35
2023-01-05T10:12:45.440Z,12.94
2023-01-05T10:15:25.049Z,12.54
2023-01-05T10:17:53.884Z,12.48
2023-01-05T10:20:27.076Z,12.77
2023-01-05T10:23:34.236Z,12.56
2023-01-05T10:26:28.298Z,12.89
2023-01-05T10:29:05.851Z,13.17
2023-01-05T10:31:50.208Z,13.27
2023-01-05T10:34:21.813Z,12.99
2023-01-05T10:37:14.508Z,12.72
2023-01-05T10:39:56.001Z,12.79
2023-01-05T10:42:23.493Z,12.31
2023-01-05T10:44:59.363Z,12.33
2023-01-05T10:47:30.249Z,12.77
2023-01-05T10:49:59.748Z,12.61
2023-01-05T10:52:33.980Z,12.38
2023-01-05T10:55:18.945Z,12.13
2023-01-05T10:58:00.867Z,12.09
2023-01-05T11:00:47.719Z,12.22
2023-01-05T11:03:18.342Z,12.31
2023-01-05T11:05:52.937Z,12.76
2023-01-05T11:08:32.125Z,12.54
2023-01-05T11:11:08.282Z,12.43
2023-01-05T11:13:46.408Z,12.56
2023-01-05T11:16:18.469Z,12.89
2023-01-05T11:18:57.693Z,13.03
2023-01-05T11:21:24.531Z,13.50
2023-01-05T11:23:57.552Z,13.23
2023-01-05T11:26:47.815Z,13.03
2023-01-05T11:29:17.630Z,13.17
2023-01-05T11:32:07.023Z,13.00
2023-01-05T11:34:48.004Z,13.05
2023-01-05T11:37:25.365Z,13.04
2023-01-05T11:39:56.444Z,13.22
2023-01-05T11:42:25.800Z,13.16
2023-01-05T11:45:17.696Z,13.47
2023-01-05T11:47:47.679Z,13.07
2023-01-05T11:50:14.568Z,13.09
2023-01-05T11:52:46.925Z,13.01
2023-01-05T11:55:23.573Z,12.96
2023-01-05T11:58:00.103Z,12.77
2023-01-05T12:01:08.799Z,12.90
2023-01-05T12:04:03.951Z,12.87
2023-01-05T12:06:49.715Z,13.03
2023-01-05T12:09:39.348Z,12.93
2023-01-05T12:12:15.945Z,13.10
2023-01-05T12:15:14.982Z,13.10
2023-01-05T12:17:50.802Z,12.88
2023-01-05T12:20:45.532Z,12.87
2023-01-05T12:23:19.348Z,12.76
2023-01-05T12:26:14.524Z,12.59
2023-01-05T12:30:24.669Z,12.56
2023-01-05T12:35:12.502Z,12.93
2023-01-05T12:38:01.767Z,12.96
2023-01-05T12:41:06.811Z,13.19
2023-01-05T12:43:54.253Z,13.06
2023-01-05T12:47:01.167Z,13.19
2023-01-05T12:49:41.394Z,13.31
2023-01-05T12:52:25.850Z,13.52
2023-01-05T12:55:01.789Z,13.45
2023-01-05T12:57:55.815Z,13.46
2023-01-05T13:00:26.555Z,13.50
2023-01-05T13:03:03.130Z,13.48
2023-01-05T13:05:57.883Z,13.30
2023-01-05T13:08:40.527Z,13.35
2023-01-05T13:11:15.027Z,13.35
2023-01-05T13:13:48.655Z,13.37
2023-01-05T13:16:23.448Z,13.47
2023-01-05T13:19:04.846Z,13.38
2023-01-05T13:21:35.379Z,13.52
2023-01-05T13:24:35.874Z,13.25
2023-01-05T13:27:03.473Z,13.25
2023-01-05T13:29:42.037Z,13.27
2023-01-05T13:32:44.669Z,13.37
2023-01-05T13:35:33.384Z,13.37
2023-01-05T13:38:14.522Z,13.39
2023-01-05T13:41:03.810Z,13.45
2023-01-05T13:43:46.063Z,13.30
2023-01-05T13:46:32.114Z,13.16
2023-01-05T13:49:34.718Z,13.00
2023-01-05T13:52:12.609Z,13.10
2023-01-05T13:55:00.378Z,13.23
2023-01-05T13:57:39.385Z,13.17
2023-01-05T14:00:31.577Z,13.18
2023-01-05T14:03:27.595Z,13.18
2023-01-05T14:06:05.818Z,13.26
2023-01-05T14:08:42.890Z,13.15
2023-01-05T14:11:33.073Z,13.40
2023-01-05T14:14:26.113Z,13.44
2023-01-05T14:16:53.851Z,13.23
2023-01-05T14:19:50.782Z,13.26
2023-01-05T14:22:24.292Z,13.40
2023-01-05T14:24:52.424Z,13.29
2023-01-05T14:27:31.328Z,13.45
2023-01-05T14:30:08.601Z,13.38
2023-01-05T14:32:44.163Z,13.68
2023-01-05T14:35:38.496Z,13.92
2023-01-05T14:38:20.954Z,13.98
2023-01-05T14:40:54.324Z,13.88
2023-01-05T14:43:38.827Z,13.85
2023-01-05T14:46:26.883Z,13.68
2023-01-05T14:49:12.395Z,13.55
2023-01-05T14:52:01.525Z,13.28
2023-01-05T14:55:06.190Z,12.99
2023-01-05T14:57:59.901Z,13.08
2023-01-05T15:00:45.148Z,13.23
2023-01-05T15:03:47.262Z,13.46
2023-01-05T15:06:31.029Z,13.68
2023-01-05T15:09:31.567Z,13.33
2023-01-05T15:12:19.654Z,13.01
2023-01-05T15:14:58.344Z,12.97
2023-01-05T15:18:08.144Z,13.25
2023-01-05T15:20:49.942Z,13.22
2023-01-05T15:23:51.124Z,13.18
2023-01-05T15:26:37.963Z,13.19
2023-01-05T15:29:35.650Z,13.44
2023-01-05T15:32:33.247Z,13.38
2023-01-05T15:35:16.895Z,13.41
2023-01-05T15:37:47.457Z,13.42
2023-01-05T15:40:23.585Z,13.26
2023-01-05T15:43:01.718Z,13.35
2023-01-05T15:45:37.190Z,12.94
2023-01-05T15:48:33.209Z,13.23
2023-01-05T15:51:02.213Z,13.20
2023-01-05T15:53:39.384Z,12.84
2023-01-05T15:56:08.292Z,12.83
2023-01-05T15:58:44.730Z,13.07
2023-01-05T16:01:15.977Z,13.06
2023-01-05T16:03:50.102Z,12.93
2023-01-05T16:06:26.204Z,12.67
2023-01-05T16:09:00.964Z,12.91
2023-01-05T16:11:34.108Z,12.72
2023-01-05T16:14:28.967Z,12.53
2023-01-05T16:17:15.690Z,12.56
2023-01-05T16:19:56.280Z,12.47
2023-01-05T16:22:42.033Z,12.53
2023-01-05T16:25:29.390Z,12.41
2023-01-05T16:28:08.253Z,12.16
2023-01-05T16:30:42.542Z,12.23
2023-01-05T16:33:12.043Z,11.69
2023-01-05T16:35:41.869Z,12.02
2023-01-05T16:38:09.218Z,11.94
2023-01-05T16:40:43.392Z,11.91
2023-01-05T16:43:55.004Z,12.40
2023-01-05T16:46:31.200Z,12.42
2023-01-05T16:49:19.921Z,11.83
2023-01-05T16:51:53.689Z,11.55
2023-01-05T16:54:42.244Z,12.40
2023-01-05T16:57:44.192Z,12.18
2023-01-05T17:03:10.231Z,12.20
2023-01-05T17:05:37.379Z,12.07
2023-01-05T17:08:27.596Z,11.58
2023-01-05T17:10:58.992Z,11.35
2023-01-05T17:13:38.259Z,12.03
2023-01-05T17:16:08.660Z,12.16
2023-01-05T17:18:37.198Z,11.81
2023-01-05T17:21:06.687Z,11.48
2023-01-05T17:23:53.191Z,11.50
2023-01-05T17:26:34.970Z,11.20
2023-01-05T17:29:08.440Z,10.95
2023-01-05T17:31:38.411Z,11.07
2023-01-05T17:34:05.357Z,11.48
2023-01-05T17:36:38.475Z,12.10
2023-01-05T17:39:11.345Z,12.40
2023-01-05T17:42:21.281Z,12.16
2023-01-05T17:44:58.212Z,11.66
2023-01-05T17:47:27.428Z,12.05
2023-01-05T17:49:54.564Z,12.19
2023-01-05T17:52:23.126Z,12.11
2023-01-05T17:54:50.040Z,12.25
2023-01-05T17:57:21.521Z,12.66
2023-01-05T17:59:49.546Z,12.36
2023-01-05T18:02:18.687Z,12.05
2023-01-05T18:04:49.131Z,11.62
2023-01-05T18:07:19.775Z,11.91
2023-01-05T18:09:49.309Z,11.53
2023-01-05T18:12:16.531Z,11.19
2023-01-05T18:14:45.733Z,11.40
2023-01-05T18:17:12.687Z,12.15
2023-01-05T18:19:48.486Z,12.37
2023-01-05T18:22:27.678Z,12.91
2023-01-05T18:24:54.711Z,12.85
2023-01-05T18:27:29.625Z,13.08
2023-01-05T18:29:57.500Z,13.02
2023-01-05T18:32:24.773Z,12.40
2023-01-05T18:34:52.839Z,12.44
2023-01-05T18:37:22.023Z,12.47
2023-01-05T18:39:51.880Z,11.76
2023-01-05T18:42:25.863Z,11.25
2023-01-05T18:44:52.931Z,11.24
2023-01-05T18:47:29.834Z,11.94
2023-01-05T18:50:02.548Z,11.60
2023-01-05T18:52:29.796Z,11.56
2023-01-05T18:54:56.631Z,11.95
2023-01-05T18:57:23.491Z,12.20
2023-01-05T18:59:51.820Z,12.22
2023-01-05T19:02:21.533Z,12.50
2023-01-05T19:04:51.609Z,12.52
2023-01-05T19:07:21.617Z,11.72
2023-01-05T19:09:51.457Z,11.33
2023-01-05T19:12:19.169Z,11.99
2023-01-05T19:14:51.873Z,11.86
2023-01-05T19:17:26.450Z,11.27
2023-01-05T19:19:56.432Z,10.75
2023-01-05T19:22:26.432Z,10.65
2023-01-05T19:24:53.689Z,10.73
2023-01-05T19:27:26.373Z,10.50
2023-01-05T19:30:00.069Z,10.23
2023-01-05T19:32:39.721Z,9.93
2023-01-05T19:35:10.406Z,9.66
2023-01-05T19:40:20.082Z,10.38
2023-01-05T19:42:49.349Z,10.63
2023-01-05T19:45:31.049Z,10.77
2023-01-05T19:47:57.937Z,11.36
2023-01-05T19:50:28.531Z,11.63
2023-01-05T19:53:01.082Z,11.56
2023-01-05T19:55:29.766Z,11.88
2023-01-05T19:58:04.881Z,12.10
2023-01-05T20:00:37.521Z,12.39
2023-01-05T20:03:14.792Z,12.23
2023-01-05T20:05:45.261Z,11.39
2023-01-05T20:08:12.282Z,10.78
2023-01-05T20:10:45.131Z,10.63
2023-01-05T20:13:16.380Z,11.56
2023-01-05T20:15:43.913Z,11.73
2023-01-05T20:18:16.657Z,11.65
2023-01-05T20:20:43.587Z,11.95
2023-01-05T20:23:11.462Z,11.00
2023-01-05T20:25:45.433Z,10.81
2023-01-05T20:28:15.660Z,11.02
2023-01-05T20:30:43.684Z,11.02
2023-01-05T20:33:13.496Z,11.12
2023-01-05T20:35:54.914Z,11.74
2023-01-05T20:38:22.276Z,12.08
2023-01-05T20:40:53.253Z,11.80
2023-01-05T20:43:30.666Z,12.21
2023-01-05T20:46:01.226Z,11.91
2023-01-05T20:48:35.670Z,11.93
2023-01-05T20:51:07.093Z,11.93
2023-01-05T20:53:34.861Z,12.13
2023-01-05T20:56:12.950Z,12.18
2023-01-05T20:58:41.248Z,11.43
2023-01-05T21:01:11.552Z,10.83
2023-01-05T21:03:44.748Z,11.82
2023-01-05T21:06:22.815Z,11.19
2023-01-05T21:08:56.089Z,10.61
2023-01-05T21:11:30.464Z,11.21
2023-01-05T21:14:07.056Z,11.11
2023-01-05T21:16:43.296Z,10.62
2023-01-05T21:19:21.984Z,10.18
2023-01-05T21:21:54.600Z,10.36
2023-01-05T21:24:25.413Z,10.04
2023-01-05T21:26:58.717Z,9.77
2023-01-05T21:29:32.581Z,9.62
2023-01-05T21:31:59.709Z,9.50
2023-01-05T21:34:26.734Z,10.01
2023-01-05T21:36:58.480Z,10.05
2023-01-05T21:39:26.281Z,9.77
2023-01-05T21:42:12.289Z,10.05
2023-01-05T21:44:55.139Z,10.45
2023-01-05T21:47:27.653Z,10.36
2023-01-05T21:49:56.944Z,10.44
2023-01-05T21:52:47.471Z,10.75
2023-01-05T21:55:33.385Z,11.02
2023-01-05T21:58:03.118Z,10.98
2023-01-05T22:00:38.821Z,11.25
2023-01-05T22:03:08.734Z,10.76
2023-01-05T22:05:36.049Z,10.56
2023-01-05T22:08:06.691Z,9.76
2023-01-05T22:10:34.104Z,9.29
2023-01-05T22:13:01.991Z,9.59
2023-01-05T22:15:28.875Z,9.71
2023-01-05T22:17:55.973Z,10.37
2023-01-05T22:20:28.278Z,11.05
2023-01-05T22:22:56.479Z,11.31
2023-01-05T22:25:26.130Z,10.66
2023-01-05T22:27:55.427Z,10.00
2023-01-05T22:30:23.588Z,10.28
2023-01-05T22:32:54.605Z,10.59
2023-01-05T22:35:21.501Z,11.23
2023-01-05T22:37:53.276Z,11.67
2023-01-05T22:40:21.276Z,10.74
2023-01-05T22:42:48.188Z,10.76
2023-01-05T22:45:27.983Z,11.31
2023-01-05T22:48:11.082Z,11.21
2023-01-05T22:50:41.394Z,10.72
2023-01-05T22:53:11.263Z,10.20
2023-01-05T22:55:38.276Z,10.00
2023-01-05T22:58:08.715Z,9.91
2023-01-05T23:00:35.879Z,9.41
2023-01-05T23:03:09.931Z,9.82
2023-01-05T23:05:50.299Z,9.31
2023-01-05T23:08:20.169Z,9.24
2023-01-05T23:10:47.051Z,9.64
2023-01-05T23:13:14.394Z,9.68
2023-01-05T23:15:50.161Z,9.52
2023-01-05T23:18:17.126Z,9.18
2023-01-05T23:20:45.430Z,9.03
2023-01-05T23:23:25.870Z,9.65
2023-01-05T23:26:09.587Z,10.25
2023-01-05T23:28:38.622Z,9.80
2023-01-05T23:31:09.193Z,9.31
2023-01-05T23:33:42.966Z,9.09
2023-01-05T23:36:14.154Z,8.77
2023-01-05T23:38:43.458Z,8.78
2023-01-05T23:41:13.745Z,8.65
2023-01-05T23:43:42.101Z,8.60
2023-01-05T23:46:20.507Z,8.40
2023-01-05T23:48:48.811Z,8.74
2023-01-05T23:51:20.603Z,8.78
2023-01-05T23:53:50.794Z,8.94
2023-01-05T23:56:21.819Z,9.06
2023-01-05T23:59:04.155Z,9.00
